Apache Junction, Arizona
Current Conditions -  °F | °C
As of 12:15 AM on Wednesday 26 Nov 2014 (Local Time) from KIWA Reporting Station
Clear Clear  
Wind Chill: 33°   Ceiling: Unl
Heat Index: 39°   Visibility: 10mi
Dew Point:   Wind: 9mph
Humidity: 26%   Direction: 100°E
Pressure: 30.32"   Gusts: NA
Location:  33.42°N, 111.54°W
Report Text: KIWA 260715Z AUTO 10008KT 10SM CLR 04/M14 A3032 RMK AO2
Loading
Personal Weather Stations






























Interactive Weather Map New forecast layout! Learn more

10-Day Weather Forecast

Advertisements
Track Severe Weather on mobile